createdAt,value
2019-01-27T00:02:18.260Z,3.79
2019-01-27T00:04:44.088Z,3.73
2019-01-27T00:07:10.136Z,3.74
2019-01-27T00:09:35.955Z,3.79
2019-01-27T00:12:02.226Z,3.88
2019-01-27T00:14:28.062Z,3.88
2019-01-27T00:16:54.181Z,3.88
2019-01-27T00:19:20.017Z,3.93
2019-01-27T00:21:46.104Z,3.93
2019-01-27T00:24:12.020Z,3.94
2019-01-27T00:26:37.888Z,3.96
2019-01-27T00:29:04.205Z,3.90
2019-01-27T00:31:30.434Z,3.87
2019-01-27T00:33:56.250Z,3.80
2019-01-27T00:36:22.088Z,3.75
2019-01-27T00:38:48.349Z,3.78
2019-01-27T00:41:14.297Z,3.79
2019-01-27T00:43:40.490Z,3.81
2019-01-27T00:46:06.640Z,3.85
2019-01-27T00:48:32.443Z,3.87
2019-01-27T00:50:58.650Z,3.88
2019-01-27T00:53:24.488Z,3.93
2019-01-27T00:55:50.308Z,3.91
2019-01-27T00:58:16.128Z,3.92
2019-01-27T01:00:42.251Z,3.90
2019-01-27T01:03:08.179Z,3.86
2019-01-27T01:05:34.086Z,3.42
2019-01-27T01:08:00.266Z,3.75
2019-01-27T01:10:26.102Z,3.77
2019-01-27T01:12:52.315Z,3.82
2019-01-27T01:15:18.350Z,3.80
2019-01-27T01:17:44.697Z,3.86
2019-01-27T01:22:49.751Z,3.92
2019-01-27T01:25:23.704Z,3.84
2019-01-27T01:27:50.136Z,3.85
2019-01-27T01:30:18.680Z,3.82
2019-01-27T01:32:45.083Z,3.82
2019-01-27T01:35:11.232Z,3.81
2019-01-27T01:37:37.161Z,3.86
2019-01-27T01:40:06.773Z,3.86
2019-01-27T01:42:33.019Z,3.89
2019-01-27T01:44:59.110Z,3.95
2019-01-27T01:47:25.242Z,3.92
2019-01-27T01:49:51.060Z,3.90
2019-01-27T01:52:17.178Z,3.85
2019-01-27T01:54:42.973Z,3.86
2019-01-27T01:57:08.842Z,3.85
2019-01-27T01:59:34.672Z,3.92
2019-01-27T02:02:00.508Z,3.97
2019-01-27T02:05:00.872Z,4.02
2019-01-27T02:07:26.723Z,4.04
2019-01-27T02:09:52.782Z,4.08
2019-01-27T02:12:18.619Z,4.07
2019-01-27T02:14:44.814Z,4.10
2019-01-27T02:17:10.668Z,4.06
2019-01-27T02:19:36.570Z,4.09
2019-01-27T02:22:02.582Z,4.11
2019-01-27T02:24:28.745Z,4.10
2019-01-27T02:26:54.592Z,4.05
2019-01-27T02:29:20.718Z,4.00
2019-01-27T02:31:46.549Z,4.05
2019-01-27T02:34:12.689Z,3.99
2019-01-27T02:36:38.568Z,4.07
2019-01-27T02:39:06.435Z,4.03
2019-01-27T02:41:32.257Z,4.08
2019-01-27T02:43:58.109Z,4.10
2019-01-27T02:46:23.928Z,4.10
2019-01-27T02:48:50.072Z,4.09
2019-01-27T02:51:15.891Z,4.07
2019-01-27T02:53:41.976Z,4.06
2019-01-27T02:56:07.828Z,4.09
2019-01-27T02:58:33.912Z,3.83
2019-01-27T03:01:00.112Z,4.09
2019-01-27T03:03:25.953Z,4.19
2019-01-27T03:05:53.791Z,4.20
2019-01-27T03:08:19.926Z,4.19
2019-01-27T03:10:45.885Z,4.21
2019-01-27T03:13:11.692Z,4.25
2019-01-27T03:15:37.505Z,4.26
2019-01-27T03:18:03.517Z,4.29
2019-01-27T03:20:29.650Z,4.23
2019-01-27T03:22:55.524Z,4.26
2019-01-27T03:25:21.679Z,4.26
2019-01-27T03:27:47.767Z,4.28
2019-01-27T03:30:20.782Z,4.30
2019-01-27T03:32:46.688Z,4.33
2019-01-27T03:35:12.690Z,4.31
2019-01-27T03:37:38.570Z,4.29
2019-01-27T03:40:08.442Z,4.23
2019-01-27T03:42:34.497Z,4.25
2019-01-27T03:45:00.333Z,4.27
2019-01-27T03:47:26.148Z,4.23
2019-01-27T03:49:52.006Z,4.21
2019-01-27T03:52:18.109Z,4.17
2019-01-27T03:54:44.196Z,4.15
2019-01-27T03:57:10.342Z,4.11
2019-01-27T03:59:36.187Z,4.09
2019-01-27T04:02:02.294Z,4.09
2019-01-27T04:04:28.129Z,4.05
2019-01-27T04:06:54.058Z,4.02
2019-01-27T04:09:19.891Z,4.08
2019-01-27T04:11:45.742Z,4.06
2019-01-27T04:14:11.569Z,4.07
2019-01-27T04:16:37.412Z,4.04
2019-01-27T04:19:03.423Z,4.04
2019-01-27T04:21:29.641Z,3.98
2019-01-27T04:23:55.536Z,4.00
2019-01-27T04:26:21.626Z,4.00
2019-01-27T04:28:47.437Z,4.15
2019-01-27T04:31:16.000Z,4.19
2019-01-27T04:33:41.837Z,4.25
2019-01-27T04:36:11.146Z,4.25
2019-01-27T04:38:37.287Z,4.25
2019-01-27T04:41:06.041Z,4.34
2019-01-27T04:43:32.171Z,4.41
2019-01-27T04:46:00.956Z,4.46
2019-01-27T04:48:26.865Z,4.44
2019-01-27T04:50:55.724Z,4.51
2019-01-27T04:53:21.542Z,4.54
2019-01-27T04:55:47.376Z,4.57
2019-01-27T04:58:13.477Z,4.56
2019-01-27T05:00:39.536Z,4.54
2019-01-27T05:03:26.818Z,4.54
2019-01-27T05:05:52.656Z,4.57
2019-01-27T05:08:18.464Z,4.53
2019-01-27T05:10:44.572Z,4.52
2019-01-27T05:13:10.384Z,4.52
2019-01-27T05:15:36.237Z,4.51
2019-01-27T05:18:02.244Z,4.50
2019-01-27T05:20:28.080Z,4.46
2019-01-27T05:22:54.309Z,4.42
2019-01-27T05:25:20.162Z,4.44
2019-01-27T05:27:46.248Z,4.44
2019-01-27T05:30:23.503Z,4.42
2019-01-27T05:32:49.793Z,4.45
2019-01-27T05:35:15.658Z,4.52
2019-01-27T05:37:41.801Z,4.50
2019-01-27T05:40:16.525Z,4.50
2019-01-27T05:42:42.360Z,4.51
2019-01-27T05:45:10.881Z,4.59
2019-01-27T05:47:36.820Z,4.57
2019-01-27T05:50:08.765Z,4.55
2019-01-27T05:52:34.847Z,4.58
2019-01-27T05:55:00.697Z,4.62
2019-01-27T05:57:26.566Z,4.62
2019-01-27T05:59:52.400Z,4.60
2019-01-27T06:02:19.219Z,4.62
2019-01-27T06:04:45.072Z,4.62
2019-01-27T06:07:10.906Z,3.81
2019-01-27T06:09:36.737Z,4.55
2019-01-27T06:12:02.647Z,4.52
2019-01-27T06:14:28.502Z,4.49
2019-01-27T06:16:54.425Z,4.53
2019-01-27T06:19:20.267Z,4.52
2019-01-27T06:21:46.115Z,4.47
2019-01-27T06:24:12.261Z,4.48
2019-01-27T06:26:38.117Z,4.49
2019-01-27T06:29:04.058Z,4.51
2019-01-27T06:31:29.913Z,4.17
2019-01-27T06:33:56.236Z,4.51
2019-01-27T06:36:22.351Z,4.53
2019-01-27T06:38:48.165Z,4.56
2019-01-27T06:41:14.018Z,4.55
2019-01-27T06:43:39.829Z,4.55
2019-01-27T06:46:05.949Z,4.56
2019-01-27T06:48:32.042Z,4.59
2019-01-27T06:50:58.173Z,4.43
2019-01-27T06:53:23.977Z,4.60
2019-01-27T06:55:49.802Z,4.63
2019-01-27T06:58:16.858Z,4.64
2019-01-27T07:00:50.389Z,4.67
2019-01-27T07:03:21.244Z,4.63
2019-01-27T07:05:58.064Z,4.62
2019-01-27T07:08:25.784Z,4.59
2019-01-27T07:10:56.600Z,4.56
2019-01-27T07:13:33.733Z,4.60
2019-01-27T07:16:13.504Z,4.61
2019-01-27T07:18:50.449Z,4.56
2019-01-27T07:21:30.284Z,4.56
2019-01-27T07:24:07.270Z,4.55
2019-01-27T07:26:51.707Z,4.55
2019-01-27T07:29:25.343Z,4.63
2019-01-27T07:32:02.808Z,4.69
2019-01-27T07:34:30.596Z,4.73
2019-01-27T07:37:15.157Z,4.81
2019-01-27T07:39:42.881Z,4.86
2019-01-27T07:42:28.746Z,4.95
2019-01-27T07:44:56.517Z,5.15
2019-01-27T07:47:24.562Z,5.12
2019-01-27T07:50:07.923Z,5.14
2019-01-27T07:52:35.675Z,5.19
2019-01-27T07:55:12.903Z,5.97
2019-01-27T07:57:46.943Z,6.73
2019-01-27T08:00:20.842Z,6.59
2019-01-27T08:02:48.586Z,6.39
2019-01-27T08:05:16.410Z,6.03
2019-01-27T08:07:49.940Z,6.08
2019-01-27T08:10:18.045Z,6.04
2019-01-27T08:12:51.889Z,6.08
2019-01-27T08:15:22.425Z,6.28
2019-01-27T08:17:52.820Z,6.99
2019-01-27T08:20:20.635Z,7.43
2019-01-27T08:22:51.399Z,7.81
2019-01-27T08:25:22.232Z,7.46
2019-01-27T08:30:52.620Z,8.16
2019-01-27T08:33:29.478Z,7.63
2019-01-27T08:38:48.443Z,6.90
2019-01-27T08:41:22.475Z,7.00
2019-01-27T08:43:50.214Z,6.96
2019-01-27T08:46:17.949Z,6.83
2019-01-27T08:48:44.036Z,7.15
2019-01-27T08:51:10.167Z,7.83
2019-01-27T08:53:35.970Z,8.79
2019-01-27T08:56:01.804Z,9.42
2019-01-27T08:58:27.696Z,9.22
2019-01-27T09:00:55.681Z,9.22
2019-01-27T09:03:23.666Z,8.95
2019-01-27T09:05:53.927Z,8.89
2019-01-27T09:08:37.219Z,8.72
2019-01-27T09:11:08.185Z,9.36
2019-01-27T09:13:47.952Z,9.49
2019-01-27T09:16:25.036Z,9.33
2019-01-27T09:18:58.774Z,9.11
2019-01-27T09:21:26.514Z,8.78
2019-01-27T09:23:57.118Z,8.34
2019-01-27T09:26:25.182Z,7.79
2019-01-27T09:29:08.389Z,7.74
2019-01-27T09:31:39.435Z,7.68
2019-01-27T09:34:16.038Z,7.61
2019-01-27T09:36:46.816Z,8.20
2019-01-27T09:39:14.549Z,9.24
2019-01-27T09:41:48.737Z,9.16
2019-01-27T09:44:16.474Z,8.88
2019-01-27T09:46:46.973Z,8.44
2019-01-27T09:49:14.997Z,9.30
2019-01-27T09:51:45.970Z,8.76
2019-01-27T09:54:19.770Z,8.28
2019-01-27T09:56:47.887Z,7.98
2019-01-27T09:59:15.635Z,7.73
2019-01-27T10:01:46.412Z,7.52
2019-01-27T10:04:17.427Z,7.46
2019-01-27T10:06:47.892Z,7.27
2019-01-27T10:09:15.664Z,7.24
2019-01-27T10:11:49.539Z,7.82
2019-01-27T10:14:33.864Z,8.00
2019-01-27T10:17:05.064Z,8.04
2019-01-27T10:19:32.775Z,8.14
2019-01-27T10:22:06.660Z,7.65
2019-01-27T10:24:49.634Z,7.31
2019-01-27T10:27:17.334Z,7.19
2019-01-27T10:30:02.092Z,7.18
2019-01-27T10:32:44.857Z,7.20
2019-01-27T10:35:12.913Z,7.14
2019-01-27T10:37:46.521Z,7.40
2019-01-27T10:40:14.646Z,7.62
2019-01-27T10:42:48.632Z,7.22
2019-01-27T10:45:16.501Z,6.93
2019-01-27T10:47:44.220Z,6.68
2019-01-27T10:53:02.890Z,6.55
2019-01-27T10:55:45.815Z,6.51
2019-01-27T10:58:13.544Z,6.86
2019-01-27T11:00:41.285Z,7.12
2019-01-27T11:03:15.082Z,7.97
2019-01-27T11:05:44.504Z,8.56
2019-01-27T11:08:12.345Z,9.28
2019-01-27T11:10:41.438Z,9.71
2019-01-27T11:13:09.438Z,9.48
2019-01-27T11:15:37.213Z,10.06
2019-01-27T11:18:05.342Z,10.70
2019-01-27T11:20:39.752Z,11.13
2019-01-27T11:23:05.939Z,11.29
2019-01-27T11:25:33.973Z,10.75
2019-01-27T11:28:01.735Z,9.44
2019-01-27T11:30:29.741Z,8.72
2019-01-27T11:33:00.596Z,8.25
2019-01-27T11:35:28.339Z,8.05
2019-01-27T11:37:56.077Z,8.17
2019-01-27T11:43:25.981Z,7.95
2019-01-27T11:46:05.747Z,8.26
2019-01-27T11:48:39.572Z,9.66
2019-01-27T11:51:10.587Z,9.88
2019-01-27T11:53:36.428Z,8.84
2019-01-27T11:56:05.578Z,8.33
2019-01-27T11:58:31.393Z,6.85
2019-01-27T12:00:57.763Z,7.60
2019-01-27T12:03:23.593Z,7.45
2019-01-27T12:05:49.437Z,7.27
2019-01-27T12:08:15.301Z,7.21
2019-01-27T12:10:41.439Z,7.15
2019-01-27T12:13:10.326Z,7.10
2019-01-27T12:15:36.651Z,7.22
2019-01-27T12:18:05.483Z,7.42
2019-01-27T12:20:31.328Z,7.37
2019-01-27T12:23:00.196Z,7.53
2019-01-27T12:25:26.331Z,8.11
2019-01-27T12:27:55.166Z,8.73
2019-01-27T12:30:21.306Z,9.05
2019-01-27T12:32:48.980Z,9.14
2019-01-27T12:35:14.805Z,8.90
2019-01-27T12:37:40.743Z,8.82
2019-01-27T12:40:10.253Z,9.04
2019-01-27T12:42:36.355Z,8.85
2019-01-27T12:45:03.595Z,8.43
2019-01-27T12:47:29.406Z,8.13
2019-01-27T12:49:55.540Z,7.91
2019-01-27T12:52:21.360Z,7.76
2019-01-27T12:54:50.309Z,7.71
2019-01-27T12:57:16.127Z,7.71
2019-01-27T12:59:45.237Z,7.66
2019-01-27T13:02:11.074Z,7.50
2019-01-27T13:04:39.682Z,7.43
2019-01-27T13:07:05.519Z,7.37
2019-01-27T13:09:33.867Z,7.33
2019-01-27T13:11:59.715Z,7.24
2019-01-27T13:14:25.553Z,7.22
2019-01-27T13:16:51.652Z,7.21
2019-01-27T13:19:17.501Z,7.16
2019-01-27T13:21:46.373Z,7.11
2019-01-27T13:24:12.206Z,7.06
2019-01-27T13:26:41.823Z,7.00
2019-01-27T13:29:07.901Z,7.01
2019-01-27T13:31:36.753Z,7.00
2019-01-27T13:34:03.181Z,7.14
2019-01-27T13:36:53.925Z,7.21
2019-01-27T13:39:19.781Z,7.14
2019-01-27T13:41:45.906Z,7.23
2019-01-27T13:44:12.112Z,7.52
2019-01-27T13:46:38.342Z,8.34
2019-01-27T13:49:04.159Z,8.60
2019-01-27T13:51:29.974Z,8.51
2019-01-27T13:53:55.822Z,8.25
2019-01-27T13:56:21.630Z,7.93
2019-01-27T13:58:47.582Z,8.28
2019-01-27T14:01:13.707Z,8.71
2019-01-27T14:03:39.759Z,8.99
2019-01-27T14:06:06.006Z,8.80
2019-01-27T14:08:32.231Z,8.66
2019-01-27T14:10:58.038Z,8.37
2019-01-27T14:13:23.888Z,7.91
2019-01-27T14:15:49.692Z,7.77
2019-01-27T14:18:15.785Z,7.72
2019-01-27T14:20:41.876Z,7.56
2019-01-27T14:23:07.695Z,7.37
2019-01-27T14:25:33.624Z,7.33
2019-01-27T14:27:59.476Z,7.32
2019-01-27T14:30:41.155Z,7.35
2019-01-27T14:33:07.508Z,7.43
2019-01-27T14:35:33.758Z,7.43
2019-01-27T14:37:59.575Z,7.47
2019-01-27T14:40:27.956Z,7.60
2019-01-27T14:42:53.792Z,7.68
2019-01-27T14:45:22.546Z,7.81
2019-01-27T14:47:52.160Z,7.84
2019-01-27T14:50:21.179Z,7.90
2019-01-27T14:52:47.382Z,7.64
2019-01-27T14:55:15.600Z,7.46
2019-01-27T14:57:41.457Z,7.36
2019-01-27T15:00:23.229Z,7.35
2019-01-27T15:02:49.443Z,7.07
2019-01-27T15:05:15.464Z,7.25
2019-01-27T15:07:41.397Z,7.20
2019-01-27T15:10:16.597Z,7.21
2019-01-27T15:12:42.512Z,7.16
2019-01-27T15:15:14.316Z,7.11
2019-01-27T15:17:40.613Z,7.07
2019-01-27T15:20:10.262Z,7.02
2019-01-27T15:22:36.106Z,6.98
2019-01-27T15:25:02.028Z,6.94
2019-01-27T15:27:27.885Z,6.77
2019-01-27T15:29:53.830Z,6.71
2019-01-27T15:32:19.674Z,6.62
2019-01-27T15:34:45.501Z,6.54
2019-01-27T15:37:11.353Z,6.47
2019-01-27T15:39:37.211Z,6.40
2019-01-27T15:42:03.263Z,6.38
2019-01-27T15:44:29.103Z,6.34
2019-01-27T15:46:54.918Z,6.28
2019-01-27T15:49:20.772Z,6.26
2019-01-27T15:51:46.582Z,6.26
2019-01-27T15:54:12.420Z,6.29
2019-01-27T15:56:38.511Z,6.22
2019-01-27T15:59:04.347Z,6.21
2019-01-27T16:01:30.598Z,6.22
2019-01-27T16:03:59.457Z,6.25
2019-01-27T16:06:25.704Z,6.27
2019-01-27T16:08:51.550Z,6.20
2019-01-27T16:11:17.631Z,6.19
2019-01-27T16:13:43.474Z,6.16
2019-01-27T16:16:09.302Z,6.04
2019-01-27T16:18:35.388Z,6.04
2019-01-27T16:21:01.222Z,5.93
2019-01-27T16:23:32.338Z,5.90
2019-01-27T16:25:59.280Z,5.84
2019-01-27T16:28:25.132Z,5.82
2019-01-27T16:31:05.508Z,5.79
2019-01-27T16:33:33.323Z,5.78
2019-01-27T16:35:59.451Z,5.72
2019-01-27T16:38:25.474Z,5.70
2019-01-27T16:40:51.281Z,5.65
2019-01-27T16:43:17.129Z,5.65
2019-01-27T16:45:42.957Z,5.61
2019-01-27T16:48:08.807Z,5.59
2019-01-27T16:50:34.642Z,5.55
2019-01-27T16:53:00.752Z,5.51
2019-01-27T16:55:26.898Z,5.44
2019-01-27T16:57:52.845Z,5.39
2019-01-27T17:00:29.531Z,5.30
2019-01-27T17:02:55.388Z,5.22
2019-01-27T17:05:21.398Z,5.18
2019-01-27T17:07:47.234Z,5.14
2019-01-27T17:10:19.061Z,5.12
2019-01-27T17:12:44.917Z,5.08
2019-01-27T17:15:11.958Z,5.07
2019-01-27T17:17:37.766Z,5.03
2019-01-27T17:20:12.763Z,4.96
2019-01-27T17:22:38.979Z,4.63
2019-01-27T17:25:07.517Z,4.87
2019-01-27T17:27:33.645Z,4.86
2019-01-27T17:29:59.610Z,4.81
2019-01-27T17:32:25.437Z,4.80
2019-01-27T17:34:51.553Z,4.75
2019-01-27T17:37:17.657Z,4.71
2019-01-27T17:39:43.484Z,4.63
2019-01-27T17:42:09.391Z,4.60
2019-01-27T17:44:35.221Z,4.55
2019-01-27T17:47:01.062Z,4.57
2019-01-27T17:49:26.896Z,4.57
2019-01-27T17:51:52.896Z,4.56
2019-01-27T17:54:18.761Z,4.53
2019-01-27T17:56:46.515Z,4.53
2019-01-27T17:59:14.443Z,4.50
2019-01-27T18:01:59.117Z,4.52
2019-01-27T18:04:26.834Z,4.53
2019-01-27T18:06:54.585Z,4.55
2019-01-27T18:09:25.385Z,4.53
2019-01-27T18:11:55.958Z,4.58
2019-01-27T18:14:23.674Z,4.36
2019-01-27T18:16:49.822Z,4.68
2019-01-27T18:19:15.952Z,4.65
2019-01-27T18:21:41.820Z,4.61
2019-01-27T18:24:07.630Z,4.39
2019-01-27T18:26:33.715Z,4.55
2019-01-27T18:28:59.663Z,4.53
2019-01-27T18:31:25.615Z,4.53
2019-01-27T18:33:51.897Z,4.49
2019-01-27T18:36:17.726Z,4.47
2019-01-27T18:38:43.557Z,4.50
2019-01-27T18:41:09.566Z,4.46
2019-01-27T18:43:35.660Z,4.47
2019-01-27T18:46:01.744Z,4.47
2019-01-27T18:48:27.594Z,4.42
2019-01-27T18:50:53.815Z,4.42
2019-01-27T18:53:24.678Z,4.37
2019-01-27T18:55:52.421Z,4.40
2019-01-27T18:58:29.722Z,4.39
2019-01-27T19:00:57.576Z,4.38
2019-01-27T19:03:28.670Z,4.36
2019-01-27T19:06:05.240Z,4.37
2019-01-27T19:08:35.784Z,4.37
2019-01-27T19:11:03.528Z,4.35
2019-01-27T19:13:34.081Z,4.32
2019-01-27T19:16:14.510Z,4.35
2019-01-27T19:18:57.197Z,4.33
2019-01-27T19:21:31.124Z,4.33
2019-01-27T19:23:58.868Z,4.27
2019-01-27T19:26:29.913Z,4.27
2019-01-27T19:29:00.200Z,4.25
2019-01-27T19:31:27.914Z,4.22
2019-01-27T19:33:55.911Z,4.21
2019-01-27T19:36:23.966Z,4.20
2019-01-27T19:39:08.474Z,4.24
2019-01-27T19:41:38.757Z,4.20
2019-01-27T19:44:06.726Z,4.19
2019-01-27T19:46:43.586Z,4.04
2019-01-27T19:49:17.401Z,3.91
2019-01-27T19:51:45.438Z,3.85
2019-01-27T19:54:22.709Z,3.71
2019-01-27T19:56:53.482Z,3.58
2019-01-27T19:59:21.478Z,3.45
2019-01-27T20:01:55.042Z,3.36
2019-01-27T20:04:32.131Z,3.31
2019-01-27T20:07:08.919Z,3.28
2019-01-27T20:09:53.323Z,3.27
2019-01-27T20:12:21.357Z,3.21
2019-01-27T20:14:55.124Z,3.18
2019-01-27T20:17:34.720Z,3.18
2019-01-27T20:20:08.759Z,3.10
2019-01-27T20:22:43.433Z,3.11
2019-01-27T20:25:27.929Z,3.08
2019-01-27T20:27:55.668Z,3.06
2019-01-27T20:30:26.182Z,3.00
2019-01-27T20:33:09.051Z,2.96
2019-01-27T20:35:37.069Z,2.95
2019-01-27T20:38:05.134Z,2.93
2019-01-27T20:40:35.387Z,2.85
2019-01-27T20:43:12.240Z,2.79
2019-01-27T20:45:40.277Z,2.77
2019-01-27T20:48:20.197Z,2.65
2019-01-27T20:50:48.176Z,2.57
2019-01-27T20:53:22.093Z,2.37
2019-01-27T20:56:05.331Z,2.33
2019-01-27T20:58:33.062Z,2.27
2019-01-27T21:03:45.892Z,2.20
2019-01-27T21:06:22.396Z,2.17
2019-01-27T21:08:50.231Z,2.07
2019-01-27T21:11:18.242Z,2.04
2019-01-27T21:13:54.917Z,1.98
2019-01-27T21:16:25.671Z,1.88
2019-01-27T21:18:53.695Z,1.77
2019-01-27T21:21:19.514Z,1.72
2019-01-27T21:23:45.608Z,1.70
2019-01-27T21:26:11.442Z,1.66
2019-01-27T21:28:37.335Z,1.67
2019-01-27T21:31:03.632Z,1.63
2019-01-27T21:33:29.464Z,1.59
2019-01-27T21:35:55.418Z,1.61
2019-01-27T21:38:21.269Z,1.57
2019-01-27T21:40:47.403Z,1.54
2019-01-27T21:43:13.297Z,1.52
2019-01-27T21:45:39.389Z,1.52
2019-01-27T21:48:05.227Z,1.47
2019-01-27T21:50:31.345Z,1.52
2019-01-27T21:52:57.207Z,1.50
2019-01-27T21:55:23.018Z,1.50
2019-01-27T21:57:48.863Z,1.51
2019-01-27T22:00:17.865Z,1.53
2019-01-27T22:02:43.713Z,1.57
2019-01-27T22:05:09.692Z,1.39
2019-01-27T22:07:35.532Z,1.69
2019-01-27T22:10:01.474Z,1.72
2019-01-27T22:12:27.348Z,1.74
2019-01-27T22:14:53.211Z,1.74
2019-01-27T22:17:19.028Z,1.77
2019-01-27T22:19:45.422Z,1.76
2019-01-27T22:22:11.259Z,1.74
2019-01-27T22:24:37.367Z,1.71
2019-01-27T22:27:03.491Z,1.75
2019-01-27T22:29:29.297Z,1.77
2019-01-27T22:31:55.190Z,1.82
2019-01-27T22:34:21.005Z,1.83
2019-01-27T22:36:50.009Z,1.81
2019-01-27T22:39:15.842Z,1.81
2019-01-27T22:41:41.951Z,1.80
2019-01-27T22:44:07.753Z,1.83
2019-01-27T22:46:33.725Z,1.81
2019-01-27T22:49:02.752Z,1.89
2019-01-27T22:51:28.566Z,1.93
2019-01-27T22:53:57.805Z,1.94
2019-01-27T22:56:23.628Z,1.90
2019-01-27T22:58:49.498Z,1.90
2019-01-27T23:01:16.249Z,1.88
2019-01-27T23:03:44.383Z,1.79
2019-01-27T23:06:10.241Z,1.74
2019-01-27T23:08:41.709Z,1.73
2019-01-27T23:11:07.840Z,1.69
2019-01-27T23:13:33.698Z,1.68
2019-01-27T23:15:59.515Z,1.72
2019-01-27T23:18:25.658Z,1.70
2019-01-27T23:20:51.898Z,1.71
2019-01-27T23:23:17.705Z,1.74
2019-01-27T23:25:46.704Z,1.76
2019-01-27T23:28:12.556Z,1.74
2019-01-27T23:30:41.219Z,1.65
2019-01-27T23:33:07.457Z,1.72
2019-01-27T23:35:36.424Z,1.76
2019-01-27T23:38:02.338Z,1.76
2019-01-27T23:40:30.956Z,1.75
2019-01-27T23:42:56.782Z,1.83
2019-01-27T23:45:25.660Z,1.83
2019-01-27T23:47:51.753Z,1.80
2019-01-27T23:50:20.429Z,1.80
2019-01-27T23:52:46.559Z,1.80
2019-01-27T23:55:12.520Z,1.78
2019-01-27T23:57:38.341Z,1.80
